createdAt,value
2022-10-07T00:02:00.965Z,5.07
2022-10-07T00:07:04.733Z,4.93
2022-10-07T00:12:08.256Z,4.60
2022-10-07T00:17:13.036Z,5.00
2022-10-07T00:22:16.462Z,4.63
2022-10-07T00:27:19.874Z,5.00
2022-10-07T00:32:24.695Z,4.90
2022-10-07T00:37:30.313Z,5.27
2022-10-07T00:42:35.718Z,5.27
2022-10-07T00:47:40.370Z,5.30
2022-10-07T00:52:49.099Z,5.45
2022-10-07T00:57:55.417Z,4.50
2022-10-07T01:03:00.245Z,5.10
2022-10-07T01:08:03.573Z,4.72
2022-10-07T01:13:15.227Z,5.05
2022-10-07T01:18:28.043Z,4.50
2022-10-07T01:23:54.183Z,5.30
2022-10-07T01:29:02.146Z,5.32
2022-10-07T01:34:07.383Z,4.87
2022-10-07T01:39:15.393Z,4.70
2022-10-07T01:44:20.467Z,4.72
2022-10-07T01:49:23.996Z,4.60
2022-10-07T01:54:38.947Z,4.90
2022-10-07T02:00:03.635Z,5.10
2022-10-07T02:05:25.397Z,4.80
2022-10-07T02:10:34.458Z,4.90
2022-10-07T02:15:44.256Z,4.75
2022-10-07T02:20:51.973Z,4.93
2022-10-07T02:25:59.017Z,5.38
2022-10-07T02:31:05.342Z,5.30
2022-10-07T02:36:13.713Z,5.00
2022-10-07T02:41:32.371Z,4.97
2022-10-07T02:46:50.030Z,5.13
2022-10-07T02:51:59.410Z,4.80
2022-10-07T02:57:05.300Z,5.40
2022-10-07T03:02:16.496Z,5.50
2022-10-07T03:07:21.845Z,5.60
2022-10-07T03:12:25.634Z,5.90
2022-10-07T03:17:30.813Z,5.15
2022-10-07T03:27:38.506Z,4.70
2022-10-07T03:32:44.141Z,5.88
2022-10-07T03:37:47.701Z,5.90
2022-10-07T03:42:51.177Z,4.90
2022-10-07T03:47:55.941Z,4.93
2022-10-07T03:52:59.444Z,5.25
2022-10-07T03:58:03.920Z,5.35
2022-10-07T04:03:09.558Z,5.13
2022-10-07T04:08:15.833Z,5.95
2022-10-07T04:13:19.202Z,5.43
2022-10-07T04:18:24.764Z,5.20
2022-10-07T04:23:30.243Z,5.47
2022-10-07T04:28:33.742Z,5.43
2022-10-07T04:33:44.470Z,5.60
2022-10-07T04:38:51.427Z,6.10
2022-10-07T04:43:59.402Z,8.07
2022-10-07T04:49:10.143Z,5.95
2022-10-07T04:54:13.600Z,4.72
2022-10-07T04:59:30.456Z,4.80
2022-10-07T05:04:36.470Z,5.85
2022-10-07T05:09:40.076Z,4.90
2022-10-07T05:14:43.541Z,5.78
2022-10-07T05:19:50.256Z,4.00
2022-10-07T05:24:55.565Z,4.20
2022-10-07T05:29:59.158Z,4.37
2022-10-07T05:35:04.221Z,4.50
2022-10-07T05:40:09.615Z,4.15
2022-10-07T05:45:14.079Z,4.13
2022-10-07T05:50:19.064Z,3.95
2022-10-07T05:55:22.744Z,3.43
2022-10-07T06:00:26.242Z,3.50
2022-10-07T06:05:32.590Z,3.10
2022-10-07T06:10:53.678Z,2.92
2022-10-07T06:16:02.313Z,3.13
2022-10-07T06:21:07.662Z,2.90
2022-10-07T06:26:13.645Z,3.03
2022-10-07T06:31:22.698Z,3.00
2022-10-07T06:36:28.189Z,3.22
2022-10-07T06:41:34.841Z,3.10
2022-10-07T06:46:54.716Z,3.28
2022-10-07T06:51:59.586Z,2.83
2022-10-07T06:57:15.450Z,2.90
2022-10-07T07:02:26.641Z,2.60
2022-10-07T07:07:32.350Z,2.30
2022-10-07T07:12:36.451Z,2.15
2022-10-07T07:17:40.386Z,2.28
2022-10-07T07:22:46.688Z,2.10
2022-10-07T07:27:55.308Z,1.90
2022-10-07T07:33:01.758Z,2.08
2022-10-07T07:38:08.277Z,2.00
2022-10-07T07:43:16.621Z,2.20
2022-10-07T07:48:20.465Z,2.10
2022-10-07T07:53:25.420Z,2.17
2022-10-07T07:58:31.414Z,2.08
2022-10-07T08:03:37.914Z,2.00
2022-10-07T08:08:44.184Z,2.00
2022-10-07T08:13:50.108Z,1.90
2022-10-07T08:18:55.483Z,1.83
2022-10-07T08:24:02.856Z,1.90
2022-10-07T08:29:09.708Z,1.87
2022-10-07T08:34:14.008Z,1.77
2022-10-07T08:39:18.717Z,2.10
2022-10-07T08:44:27.345Z,1.85
2022-10-07T08:49:39.990Z,2.70
2022-10-07T08:54:44.691Z,2.20
2022-10-07T08:59:54.063Z,1.77
2022-10-07T09:05:05.659Z,1.70
2022-10-07T09:10:24.997Z,2.00
2022-10-07T09:15:40.324Z,1.80
2022-10-07T09:20:48.036Z,1.83
2022-10-07T09:25:53.163Z,1.90
2022-10-07T09:30:56.645Z,1.83
2022-10-07T09:36:07.755Z,1.83
2022-10-07T09:41:19.787Z,2.08
2022-10-07T09:46:40.593Z,1.80
2022-10-07T09:51:59.809Z,1.80
2022-10-07T09:57:06.601Z,2.22
2022-10-07T10:02:23.522Z,1.75
2022-10-07T10:07:29.945Z,2.10
2022-10-07T10:12:40.727Z,2.30
2022-10-07T10:17:46.057Z,2.23
2022-10-07T10:22:49.398Z,2.08
2022-10-07T10:28:01.815Z,2.10
2022-10-07T10:33:25.186Z,1.90
2022-10-07T10:38:41.235Z,1.93
2022-10-07T10:44:01.134Z,1.83
2022-10-07T10:49:12.018Z,2.00
2022-10-07T10:54:25.178Z,1.93
2022-10-07T11:00:00.602Z,1.83
2022-10-07T11:05:07.214Z,1.80
2022-10-07T11:10:20.366Z,1.67
2022-10-07T11:15:29.542Z,1.60
2022-10-07T11:20:41.019Z,1.38
2022-10-07T11:25:51.581Z,1.25
2022-10-07T11:31:01.081Z,1.33
2022-10-07T11:36:12.594Z,1.53
2022-10-07T11:41:21.019Z,1.40
2022-10-07T11:46:32.642Z,1.53
2022-10-07T11:51:38.828Z,1.55
2022-10-07T11:56:49.301Z,1.40
2022-10-07T12:01:53.984Z,1.40
2022-10-07T12:07:34.965Z,1.80
2022-10-07T12:12:53.188Z,1.73
2022-10-07T12:18:18.958Z,1.40
2022-10-07T12:23:46.846Z,1.33
2022-10-07T12:29:05.121Z,1.70
2022-10-07T12:34:13.183Z,1.37
2022-10-07T12:39:37.403Z,1.40
2022-10-07T12:44:51.347Z,1.50
2022-10-07T12:49:59.652Z,1.50
2022-10-07T12:55:07.348Z,1.50
2022-10-07T13:00:17.018Z,1.70
2022-10-07T13:05:53.932Z,1.45
2022-10-07T13:11:25.908Z,1.60
2022-10-07T13:16:34.433Z,1.50
2022-10-07T13:21:42.133Z,1.60
2022-10-07T13:26:47.150Z,1.50
2022-10-07T13:32:05.328Z,1.60
2022-10-07T13:37:29.973Z,1.95
2022-10-07T13:42:35.366Z,1.60
2022-10-07T13:47:38.686Z,1.50
2022-10-07T13:52:46.985Z,1.60
2022-10-07T13:57:52.520Z,1.65
2022-10-07T14:02:56.067Z,1.60
2022-10-07T14:08:01.188Z,1.58
2022-10-07T14:13:09.330Z,1.80
2022-10-07T14:18:13.854Z,1.53
2022-10-07T14:23:23.710Z,1.50
2022-10-07T14:28:33.066Z,1.70
2022-10-07T14:34:01.154Z,1.80
2022-10-07T14:39:22.862Z,1.60
2022-10-07T14:44:27.881Z,1.42
2022-10-07T14:49:31.782Z,1.60
2022-10-07T14:54:35.982Z,1.60
2022-10-07T14:59:40.633Z,1.55
2022-10-07T15:04:45.231Z,1.60
2022-10-07T15:09:48.743Z,1.63
2022-10-07T15:14:53.414Z,1.90
2022-10-07T15:19:57.413Z,1.73
2022-10-07T15:25:00.782Z,2.08
2022-10-07T15:30:07.332Z,1.70
2022-10-07T15:35:11.064Z,1.70
2022-10-07T15:40:14.835Z,2.00
2022-10-07T15:45:21.066Z,2.05
2022-10-07T15:50:24.702Z,1.90
2022-10-07T15:55:29.456Z,2.40
2022-10-07T16:00:34.178Z,2.30
2022-10-07T16:05:37.991Z,2.60
2022-10-07T16:10:41.285Z,3.00
2022-10-07T16:15:56.106Z,2.65
2022-10-07T16:20:59.549Z,2.40
2022-10-07T16:26:06.719Z,2.70
2022-10-07T16:31:11.468Z,2.80
2022-10-07T16:36:16.310Z,2.88
2022-10-07T16:41:20.669Z,8.35
2022-10-07T16:46:25.708Z,4.25
2022-10-07T16:51:31.186Z,4.00
2022-10-07T16:56:36.580Z,3.67
2022-10-07T17:01:41.881Z,3.73
2022-10-07T17:06:46.802Z,5.30
2022-10-07T17:11:50.330Z,4.50
2022-10-07T17:16:58.120Z,4.40
2022-10-07T17:22:01.736Z,4.18
2022-10-07T17:27:06.422Z,4.47
2022-10-07T17:32:11.440Z,4.75
2022-10-07T17:37:14.824Z,5.97
2022-10-07T17:42:20.189Z,7.78
2022-10-07T17:47:24.874Z,12.15
2022-10-07T17:52:28.883Z,33.35
2022-10-07T17:57:32.896Z,27.57
2022-10-07T18:02:39.626Z,22.58
2022-10-07T18:07:44.603Z,14.70
2022-10-07T18:13:05.631Z,12.98
2022-10-07T18:18:10.293Z,7.20
2022-10-07T18:23:13.929Z,7.78
2022-10-07T18:28:17.275Z,6.40
2022-10-07T18:33:21.983Z,8.55
2022-10-07T18:38:25.321Z,8.18
2022-10-07T18:43:28.785Z,7.10
2022-10-07T18:48:34.670Z,6.30
2022-10-07T18:53:40.068Z,6.75
2022-10-07T18:58:45.585Z,6.40
2022-10-07T19:03:56.055Z,7.57
2022-10-07T19:09:02.295Z,8.35
2022-10-07T19:14:06.016Z,9.07
2022-10-07T19:19:13.932Z,8.30
2022-10-07T19:24:17.643Z,8.60
2022-10-07T19:29:20.994Z,8.73
2022-10-07T19:34:25.817Z,8.10
2022-10-07T19:39:29.133Z,7.90
2022-10-07T19:44:33.645Z,7.90
2022-10-07T19:49:38.747Z,12.07
2022-10-07T19:54:45.808Z,10.18
2022-10-07T19:59:49.257Z,12.90
2022-10-07T20:04:54.136Z,13.80
2022-10-07T20:09:57.401Z,15.10
2022-10-07T20:15:01.148Z,14.07
2022-10-07T20:20:06.502Z,14.73
2022-10-07T20:25:11.419Z,14.35
2022-10-07T20:30:18.075Z,17.27
2022-10-07T20:35:24.355Z,16.52
2022-10-07T20:40:41.568Z,18.00
2022-10-07T20:45:57.201Z,19.13
2022-10-07T20:51:08.301Z,22.33
2022-10-07T20:56:11.645Z,22.98
2022-10-07T21:01:15.630Z,24.77
2022-10-07T21:06:20.353Z,27.85
2022-10-07T21:11:23.856Z,35.95
2022-10-07T21:16:29.332Z,36.87
2022-10-07T21:21:34.448Z,52.27
2022-10-07T21:26:38.261Z,50.95
2022-10-07T21:31:43.022Z,40.70
2022-10-07T21:36:52.977Z,33.28
2022-10-07T21:41:58.102Z,38.53
2022-10-07T21:47:01.417Z,46.50
2022-10-07T21:52:06.089Z,37.20
2022-10-07T21:57:09.701Z,24.02
2022-10-07T22:02:13.897Z,22.83
2022-10-07T22:07:36.186Z,27.17
2022-10-07T22:12:39.477Z,29.17
2022-10-07T22:17:42.736Z,24.42
2022-10-07T22:22:49.045Z,22.25
2022-10-07T22:27:52.604Z,20.13
2022-10-07T22:32:55.921Z,18.77
2022-10-07T22:38:00.680Z,20.10
2022-10-07T22:43:03.970Z,23.77
2022-10-07T22:48:07.426Z,23.60
2022-10-07T22:53:12.148Z,20.43
2022-10-07T22:58:15.563Z,19.50
2022-10-07T23:03:19.115Z,19.85
2022-10-07T23:08:23.928Z,18.98
2022-10-07T23:13:27.826Z,22.70
2022-10-07T23:18:31.762Z,23.90
2022-10-07T23:23:38.105Z,23.67
2022-10-07T23:28:41.887Z,25.55
2022-10-07T23:33:46.783Z,26.40
2022-10-07T23:38:52.365Z,29.15
2022-10-07T23:43:58.396Z,27.67
2022-10-07T23:49:01.785Z,30.13
2022-10-07T23:54:06.797Z,32.60
2022-10-07T23:59:10.109Z,30.87
